createdAt,value
2022-10-14T00:03:28.121Z,94.71
2022-10-14T00:08:32.997Z,95.32
2022-10-14T00:13:38.798Z,96.33
2022-10-14T00:18:42.106Z,96.31
2022-10-14T00:23:47.743Z,95.96
2022-10-14T00:28:52.226Z,95.33
2022-10-14T00:33:56.525Z,95.00
2022-10-14T00:39:01.435Z,95.53
2022-10-14T00:44:06.882Z,95.64
2022-10-14T00:49:13.946Z,95.41
2022-10-14T00:54:22.800Z,94.50
2022-10-14T00:59:26.324Z,93.91
2022-10-14T01:04:29.977Z,93.93
2022-10-14T01:09:42.555Z,94.32
2022-10-14T01:14:54.858Z,94.50
2022-10-14T01:20:24.757Z,95.21
2022-10-14T01:25:34.750Z,95.04
2022-10-14T01:30:45.360Z,95.69
2022-10-14T01:36:00.308Z,95.84
2022-10-14T01:41:09.397Z,96.08
2022-10-14T01:46:15.014Z,96.35
2022-10-14T01:51:23.859Z,95.98
2022-10-14T01:56:29.055Z,95.98
2022-10-14T02:01:36.721Z,97.13
2022-10-14T02:06:44.425Z,96.86
2022-10-14T02:12:00.252Z,96.95
2022-10-14T02:17:12.550Z,96.52
2022-10-14T02:22:25.791Z,96.33
2022-10-14T02:27:32.481Z,97.01
2022-10-14T02:32:41.631Z,96.42
2022-10-14T02:37:50.695Z,96.42
2022-10-14T02:42:54.080Z,97.17
2022-10-14T02:47:58.789Z,97.32
2022-10-14T02:53:02.130Z,97.50
2022-10-14T02:58:05.489Z,98.93
2022-10-14T03:09:38.676Z,99.09
2022-10-14T03:14:43.988Z,98.63
2022-10-14T03:19:50.052Z,99.06
2022-10-14T03:24:54.931Z,98.39
2022-10-14T03:30:18.741Z,98.44
2022-10-14T03:35:34.556Z,98.35
2022-10-14T03:40:42.944Z,98.05
2022-10-14T03:45:49.166Z,97.05
2022-10-14T03:50:55.490Z,97.58
2022-10-14T03:56:01.794Z,97.18
2022-10-14T04:01:07.118Z,97.32
2022-10-14T04:06:25.973Z,96.76
2022-10-14T04:11:35.426Z,96.07
2022-10-14T04:16:46.082Z,95.94
2022-10-14T04:21:52.758Z,95.88
2022-10-14T04:27:00.089Z,96.33
2022-10-14T04:32:13.864Z,96.12
2022-10-14T04:37:17.277Z,96.00
2022-10-14T04:42:47.859Z,95.06
2022-10-14T04:47:57.639Z,95.06
2022-10-14T04:53:02.845Z,95.09
2022-10-14T04:58:07.832Z,94.90
2022-10-14T05:03:17.069Z,94.48
2022-10-14T05:08:21.221Z,94.20
2022-10-14T05:13:31.026Z,94.76
2022-10-14T05:18:39.369Z,94.75
2022-10-14T05:23:46.569Z,95.09
2022-10-14T05:28:52.800Z,94.72
2022-10-14T05:33:57.661Z,95.25
2022-10-14T05:39:01.196Z,95.53
2022-10-14T05:44:12.944Z,96.39
2022-10-14T05:49:16.493Z,96.38
2022-10-14T05:54:21.118Z,96.30
2022-10-14T05:59:29.875Z,95.02
2022-10-14T06:04:34.421Z,95.18
2022-10-14T06:09:40.207Z,94.36
2022-10-14T06:14:45.030Z,93.97
2022-10-14T06:19:48.456Z,94.95
2022-10-14T06:24:51.864Z,94.66
2022-10-14T06:29:56.534Z,95.04
2022-10-14T06:35:00.351Z,94.60
2022-10-14T06:40:04.039Z,93.52
2022-10-14T06:45:09.706Z,93.00
2022-10-14T06:50:13.090Z,92.48
2022-10-14T06:55:17.471Z,92.59
2022-10-14T07:00:22.434Z,92.53
2022-10-14T07:05:26.547Z,92.67
2022-10-14T07:10:29.946Z,93.34
2022-10-14T07:15:36.191Z,93.60
2022-10-14T07:20:39.857Z,92.65
2022-10-14T07:25:43.539Z,91.62
2022-10-14T07:30:58.168Z,90.75
2022-10-14T07:36:03.283Z,90.79
2022-10-14T07:41:09.297Z,89.74
2022-10-14T07:46:15.022Z,88.17
2022-10-14T07:51:18.389Z,87.76
2022-10-14T07:56:23.549Z,88.75
2022-10-14T08:01:28.313Z,86.69
2022-10-14T08:06:31.724Z,86.87
2022-10-14T08:11:35.354Z,87.33
2022-10-14T08:16:40.968Z,87.85
2022-10-14T08:21:45.073Z,86.64
2022-10-14T08:26:53.111Z,85.91
2022-10-14T08:31:57.981Z,86.19
2022-10-14T08:37:02.937Z,86.47
2022-10-14T08:42:20.391Z,87.91
2022-10-14T08:47:32.630Z,86.99
2022-10-14T08:52:40.923Z,84.84
2022-10-14T08:57:51.823Z,83.79
2022-10-14T09:02:57.939Z,82.89
2022-10-14T09:08:02.813Z,81.55
2022-10-14T09:13:12.655Z,83.27
2022-10-14T09:18:25.766Z,84.27
2022-10-14T09:23:29.426Z,82.49
2022-10-14T09:28:38.467Z,82.37
2022-10-14T09:33:48.213Z,82.41
2022-10-14T09:38:53.909Z,83.32
2022-10-14T09:44:22.912Z,82.86
2022-10-14T09:49:42.198Z,81.67
2022-10-14T09:54:47.284Z,79.85
2022-10-14T09:59:58.364Z,79.41
2022-10-14T10:05:13.247Z,79.10
2022-10-14T10:10:22.655Z,78.34
2022-10-14T10:15:26.535Z,77.36
2022-10-14T10:20:33.572Z,77.50
2022-10-14T10:25:37.173Z,76.17
2022-10-14T10:30:49.642Z,75.14
2022-10-14T10:36:20.946Z,73.73
2022-10-14T10:41:39.569Z,68.27
2022-10-14T10:47:05.846Z,66.76
2022-10-14T10:52:21.420Z,67.07
2022-10-14T10:57:52.804Z,68.02
2022-10-14T11:03:03.160Z,67.79
2022-10-14T11:08:37.002Z,67.59
2022-10-14T11:13:49.184Z,66.14
2022-10-14T11:19:02.874Z,62.47
2022-10-14T11:29:47.377Z,70.06
2022-10-14T11:35:01.619Z,70.98
2022-10-14T11:40:16.854Z,70.95
2022-10-14T11:45:47.781Z,69.67
2022-10-14T11:50:56.525Z,68.73
2022-10-14T11:56:06.358Z,67.53
2022-10-14T12:01:11.767Z,67.24
2022-10-14T12:06:20.965Z,64.50
2022-10-14T12:11:30.785Z,65.57
2022-10-14T12:16:34.362Z,65.67
2022-10-14T12:21:49.719Z,66.03
2022-10-14T12:27:02.029Z,66.58
2022-10-14T12:32:19.727Z,66.32
2022-10-14T12:37:51.814Z,66.20
2022-10-14T12:43:07.223Z,65.25
2022-10-14T12:48:18.839Z,64.94
2022-10-14T12:53:25.491Z,64.46
2022-10-14T12:58:34.601Z,62.97
2022-10-14T13:03:45.024Z,62.13
2022-10-14T13:09:38.619Z,64.60
2022-10-14T13:15:53.966Z,63.46
2022-10-14T13:21:03.858Z,63.05
2022-10-14T13:26:20.555Z,63.51
2022-10-14T13:31:28.759Z,64.00
2022-10-14T13:36:38.180Z,66.21
2022-10-14T13:41:42.268Z,67.46
2022-10-14T13:46:49.994Z,66.99
2022-10-14T13:51:59.677Z,67.36
2022-10-14T13:57:42.706Z,66.27
2022-10-14T14:02:39.378Z,68.00
2022-10-14T14:08:22.245Z,67.74
2022-10-14T14:13:13.996Z,70.30
2022-10-14T14:18:49.159Z,71.05
2022-10-14T14:24:02.974Z,71.56
2022-10-14T14:29:08.595Z,73.71
2022-10-14T14:34:21.100Z,72.82
2022-10-14T14:39:30.607Z,74.66
2022-10-14T14:44:35.632Z,74.57
2022-10-14T14:49:40.936Z,74.18
2022-10-14T14:54:49.371Z,76.60
2022-10-14T15:00:02.063Z,77.36
2022-10-14T15:05:10.587Z,78.92
2022-10-14T15:10:25.062Z,79.34
2022-10-14T15:15:32.269Z,80.05
2022-10-14T15:20:42.243Z,81.65
2022-10-14T15:25:58.251Z,81.82
2022-10-14T15:31:04.853Z,81.73
2022-10-14T15:36:13.011Z,82.48
2022-10-14T15:41:17.837Z,83.49
2022-10-14T15:46:39.034Z,84.38
2022-10-14T15:51:42.655Z,85.69
2022-10-14T15:56:48.361Z,86.88
2022-10-14T16:01:52.322Z,86.66
2022-10-14T16:06:57.621Z,87.48
2022-10-14T16:12:02.439Z,87.50
2022-10-14T16:17:05.839Z,87.75
2022-10-14T16:22:10.342Z,88.09
2022-10-14T16:27:16.640Z,87.81
2022-10-14T16:32:20.002Z,88.05
2022-10-14T16:37:23.964Z,88.92
2022-10-14T16:42:29.018Z,88.61
2022-10-14T16:47:32.541Z,88.53
2022-10-14T16:52:50.642Z,89.14
2022-10-14T16:57:55.393Z,89.33
2022-10-14T17:02:58.868Z,89.75
2022-10-14T17:08:02.274Z,89.82
2022-10-14T17:13:07.748Z,90.35
2022-10-14T17:18:17.715Z,90.97
2022-10-14T17:23:21.444Z,90.87
2022-10-14T17:28:26.639Z,90.41
2022-10-14T17:33:30.117Z,91.05
2022-10-14T17:38:35.050Z,90.90
2022-10-14T17:43:40.613Z,90.72
2022-10-14T17:48:44.487Z,90.88
2022-10-14T17:53:48.302Z,91.50
2022-10-14T17:58:57.567Z,92.21
2022-10-14T18:04:03.191Z,92.38
2022-10-14T18:09:09.033Z,92.98
2022-10-14T18:14:14.633Z,93.39
2022-10-14T18:19:18.031Z,92.93
2022-10-14T18:24:21.506Z,93.00
2022-10-14T18:29:37.101Z,93.33
2022-10-14T18:34:47.107Z,92.81
2022-10-14T18:39:58.588Z,93.97
2022-10-14T18:45:03.371Z,95.89
2022-10-14T18:50:07.265Z,95.06
2022-10-14T18:55:10.898Z,95.94
2022-10-14T19:00:18.824Z,96.99
2022-10-14T19:05:23.617Z,97.75
2022-10-14T19:10:30.530Z,98.83
2022-10-14T19:15:45.240Z,99.10
2022-10-14T19:20:56.462Z,99.65
2022-10-14T19:26:01.140Z,100.00
2022-10-14T19:31:07.740Z,100.00
2022-10-14T19:36:12.932Z,100.00
2022-10-14T19:41:16.380Z,100.00
2022-10-14T19:46:27.393Z,100.00
2022-10-14T19:51:31.298Z,100.00
2022-10-14T19:56:34.821Z,100.00
2022-10-14T20:01:39.659Z,100.00
2022-10-14T20:06:45.164Z,100.00
2022-10-14T20:11:48.565Z,100.00
2022-10-14T20:16:55.894Z,100.00
2022-10-14T20:22:01.589Z,100.00
2022-10-14T20:27:07.930Z,100.00
2022-10-14T20:32:15.964Z,100.00
2022-10-14T20:37:22.982Z,100.00
2022-10-14T20:42:29.499Z,100.00
2022-10-14T20:47:34.187Z,100.00
2022-10-14T20:52:37.817Z,100.00
2022-10-14T20:57:41.733Z,100.00
2022-10-14T21:02:46.501Z,100.00
2022-10-14T21:07:50.228Z,100.00
2022-10-14T21:12:53.561Z,100.00
2022-10-14T21:17:58.340Z,100.00
2022-10-14T21:23:05.050Z,100.00
2022-10-14T21:28:08.509Z,100.00
2022-10-14T21:33:13.249Z,100.00
2022-10-14T21:38:16.608Z,100.00
2022-10-14T21:43:19.994Z,100.00
2022-10-14T21:48:24.712Z,100.00
2022-10-14T21:54:01.698Z,100.00
2022-10-14T21:59:05.667Z,100.00
2022-10-14T22:04:14.406Z,100.00
2022-10-14T22:09:17.734Z,100.00
2022-10-14T22:14:21.619Z,100.00
2022-10-14T22:19:26.663Z,100.00
2022-10-14T22:24:29.987Z,100.00
2022-10-14T22:29:33.393Z,100.00
2022-10-14T22:34:38.070Z,100.00
2022-10-14T22:39:41.450Z,100.00
2022-10-14T22:44:44.821Z,100.00
2022-10-14T22:49:49.591Z,100.00
2022-10-14T22:54:52.941Z,100.00
2022-10-14T22:59:56.513Z,100.00
2022-10-14T23:05:01.229Z,100.00
2022-10-14T23:10:05.008Z,100.00
2022-10-14T23:15:09.424Z,100.00
2022-10-14T23:20:14.157Z,100.00
2022-10-14T23:25:17.895Z,100.00
2022-10-14T23:30:21.322Z,100.00
2022-10-14T23:35:26.109Z,100.00
2022-10-14T23:40:29.460Z,100.00
2022-10-14T23:45:32.903Z,100.00
2022-10-14T23:50:37.601Z,100.00
2022-10-14T23:55:41.666Z,100.00
